Yeoward Addition, Illinois
Current Conditions -  °F | °C
As of 5:35 AM on Friday 24 Oct 2014 (Local Time) from KSQI Reporting Station
Overcast Overcast  
Wind Chill: 37°   Ceiling: 300
Heat Index: 37°   Visibility: 0.25mi
Dew Point: 36°   Wind: 0mph
Humidity: 93%   Direction: NA
Pressure: 30.06"   Gusts: NA
Location:  41.7267°N, 89.7066°W
Report Text: KSQI 241035Z AUTO 00000KT 1/4SM OVC003 03/02 A3006 RMK AO1
Loading
Personal Weather Stations






























Interactive Weather Map
Tropical Storm Tracking
New forecast layout! Learn more

10-Day Weather Forecast

Advertisements
Track Severe Weather on mobile